sensor_id;sensor_type;location;lat;lon;timestamp;pressure;altitude;pressure_sealevel;temperature;humidity
10464;BME280;5279;42.048;24.638;2022-10-17T00:01:13;98800.44;;;9.68;87.78
10464;BME280;5279;42.048;24.638;2022-10-17T00:03:41;98803.50;;;9.62;88.21
10464;BME280;5279;42.048;24.638;2022-10-17T00:06:12;98805.00;;;9.66;89.32
10464;BME280;5279;42.048;24.638;2022-10-17T00:08:40;98807.72;;;9.65;89.68
10464;BME280;5279;42.048;24.638;2022-10-17T00:11:13;98807.53;;;9.55;91.22
10464;BME280;5279;42.048;24.638;2022-10-17T00:13:41;98814.75;;;9.53;91.51
10464;BME280;5279;42.048;24.638;2022-10-17T00:16:09;98811.16;;;9.54;91.73
10464;BME280;5279;42.048;24.638;2022-10-17T00:18:37;98812.81;;;9.55;92.71
10464;BME280;5279;42.048;24.638;2022-10-17T00:21:05;98816.88;;;9.48;92.64
10464;BME280;5279;42.048;24.638;2022-10-17T00:23:40;98815.63;;;9.41;94.68
10464;BME280;5279;42.048;24.638;2022-10-17T00:26:07;98812.47;;;9.36;93.76
10464;BME280;5279;42.048;24.638;2022-10-17T00:28:34;98815.97;;;9.24;95.60
10464;BME280;5279;42.048;24.638;2022-10-17T00:31:03;98820.28;;;9.25;95.29
10464;BME280;5279;42.048;24.638;2022-10-17T00:33:31;98819.13;;;9.16;98.69
10464;BME280;5279;42.048;24.638;2022-10-17T00:36:03;98817.75;;;9.11;99.84
10464;BME280;5279;42.048;24.638;2022-10-17T00:38:32;98819.53;;;9.10;98.11
10464;BME280;5279;42.048;24.638;2022-10-17T00:40:59;98814.16;;;8.99;99.00
10464;BME280;5279;42.048;24.638;2022-10-17T00:43:26;98824.50;;;8.90;100.00
10464;BME280;5279;42.048;24.638;2022-10-17T00:45:54;98817.72;;;8.86;100.00
10464;BME280;5279;42.048;24.638;2022-10-17T00:48:21;98823.75;;;8.88;100.00
10464;BME280;5279;42.048;24.638;2022-10-17T00:50:51;98825.16;;;8.93;100.00
10464;BME280;5279;42.048;24.638;2022-10-17T00:53:18;98816.97;;;8.71;100.00
10464;BME280;5279;42.048;24.638;2022-10-17T00:55:50;98814.56;;;8.81;100.00
10464;BME280;5279;42.048;24.638;2022-10-17T00:58:18;98818.56;;;8.73;100.00
10464;BME280;5279;42.048;24.638;2022-10-17T01:00:47;98816.66;;;8.75;100.00
10464;BME280;5279;42.048;24.638;2022-10-17T01:03:15;98820.25;;;8.74;100.00
10464;BME280;5279;42.048;24.638;2022-10-17T01:05:42;98820.06;;;8.77;100.00
10464;BME280;5279;42.048;24.638;2022-10-17T01:08:10;98821.31;;;8.85;100.00
10464;BME280;5279;42.048;24.638;2022-10-17T01:10:48;98828.50;;;8.83;100.00
10464;BME280;5279;42.048;24.638;2022-10-17T01:13:26;98827.41;;;8.72;100.00
10464;BME280;5279;42.048;24.638;2022-10-17T01:16:00;98817.63;;;8.74;100.00
10464;BME280;5279;42.048;24.638;2022-10-17T01:18:41;98830.41;;;8.81;100.00
10464;BME280;5279;42.048;24.638;2022-10-17T01:21:30;98823.44;;;8.79;100.00
10464;BME280;5279;42.048;24.638;2022-10-17T01:24:37;98820.66;;;8.68;100.00
10464;BME280;5279;42.048;24.638;2022-10-17T01:27:41;98834.44;;;8.86;100.00
10464;BME280;5279;42.048;24.638;2022-10-17T01:33:26;98823.25;;;9.08;100.00
10464;BME280;5279;42.048;24.638;2022-10-17T01:35:58;98825.34;;;9.03;100.00
10464;BME280;5279;42.048;24.638;2022-10-17T01:38:30;98820.88;;;8.91;100.00
10464;BME280;5279;42.048;24.638;2022-10-17T01:41:01;98811.16;;;8.78;100.00
10464;BME280;5279;42.048;24.638;2022-10-17T01:43:35;98812.88;;;8.92;100.00
10464;BME280;5279;42.048;24.638;2022-10-17T01:46:10;98809.47;;;8.77;100.00
10464;BME280;5279;42.048;24.638;2022-10-17T01:48:42;98820.78;;;8.79;100.00
10464;BME280;5279;42.048;24.638;2022-10-17T01:51:15;98815.72;;;8.76;100.00
10464;BME280;5279;42.048;24.638;2022-10-17T01:53:53;98814.00;;;8.75;100.00
10464;BME280;5279;42.048;24.638;2022-10-17T01:56:24;98807.97;;;8.73;100.00
10464;BME280;5279;42.048;24.638;2022-10-17T01:58:57;98799.81;;;8.64;100.00
10464;BME280;5279;42.048;24.638;2022-10-17T02:01:27;98818.09;;;8.54;100.00
10464;BME280;5279;42.048;24.638;2022-10-17T02:03:57;98829.25;;;8.45;100.00
10464;BME280;5279;42.048;24.638;2022-10-17T02:06:25;98829.25;;;8.45;100.00
10464;BME280;5279;42.048;24.638;2022-10-17T02:08:51;98826.53;;;8.47;100.00
10464;BME280;5279;42.048;24.638;2022-10-17T02:11:20;98830.97;;;8.46;100.00
10464;BME280;5279;42.048;24.638;2022-10-17T02:16:44;98840.84;;;8.30;100.00
10464;BME280;5279;42.048;24.638;2022-10-17T02:19:33;98838.34;;;8.27;100.00
10464;BME280;5279;42.048;24.638;2022-10-17T02:22:07;98841.81;;;8.15;100.00
10464;BME280;5279;42.048;24.638;2022-10-17T02:24:48;98845.00;;;8.20;100.00
10464;BME280;5279;42.048;24.638;2022-10-17T02:27:24;98848.59;;;8.19;100.00
10464;BME280;5279;42.048;24.638;2022-10-17T02:29:56;98848.78;;;8.16;100.00
10464;BME280;5279;42.048;24.638;2022-10-17T02:32:30;98848.50;;;8.20;100.00
10464;BME280;5279;42.048;24.638;2022-10-17T02:35:02;98840.53;;;8.08;100.00
10464;BME280;5279;42.048;24.638;2022-10-17T02:37:31;98851.41;;;8.16;100.00
10464;BME280;5279;42.048;24.638;2022-10-17T02:40:00;98855.38;;;8.23;100.00
10464;BME280;5279;42.048;24.638;2022-10-17T02:42:29;98847.09;;;8.15;100.00
10464;BME280;5279;42.048;24.638;2022-10-17T02:44:58;98862.19;;;8.13;100.00
10464;BME280;5279;42.048;24.638;2022-10-17T02:47:28;98858.88;;;8.09;100.00
10464;BME280;5279;42.048;24.638;2022-10-17T02:49:58;98861.25;;;8.14;100.00
10464;BME280;5279;42.048;24.638;2022-10-17T02:52:32;98855.00;;;8.15;100.00
10464;BME280;5279;42.048;24.638;2022-10-17T02:55:05;98857.03;;;8.11;100.00
10464;BME280;5279;42.048;24.638;2022-10-17T02:57:37;98865.47;;;8.16;100.00
10464;BME280;5279;42.048;24.638;2022-10-17T03:00:08;98876.88;;;8.17;100.00
10464;BME280;5279;42.048;24.638;2022-10-17T03:02:40;98865.75;;;8.12;100.00
10464;BME280;5279;42.048;24.638;2022-10-17T03:05:08;98867.66;;;8.10;100.00
10464;BME280;5279;42.048;24.638;2022-10-17T03:07:40;98876.31;;;8.12;100.00
10464;BME280;5279;42.048;24.638;2022-10-17T03:10:07;98886.69;;;8.15;100.00
10464;BME280;5279;42.048;24.638;2022-10-17T03:12:33;98881.19;;;8.18;100.00
10464;BME280;5279;42.048;24.638;2022-10-17T03:15:00;98881.41;;;8.29;100.00
10464;BME280;5279;42.048;24.638;2022-10-17T03:17:27;98888.53;;;8.27;100.00
10464;BME280;5279;42.048;24.638;2022-10-17T03:19:54;98889.13;;;8.18;100.00
10464;BME280;5279;42.048;24.638;2022-10-17T03:22:21;98884.78;;;8.31;100.00
10464;BME280;5279;42.048;24.638;2022-10-17T03:24:49;98887.06;;;8.23;100.00
10464;BME280;5279;42.048;24.638;2022-10-17T03:27:16;98884.25;;;8.12;100.00
10464;BME280;5279;42.048;24.638;2022-10-17T03:29:43;98882.25;;;8.15;100.00
10464;BME280;5279;42.048;24.638;2022-10-17T03:32:09;98887.06;;;8.23;100.00
10464;BME280;5279;42.048;24.638;2022-10-17T03:34:36;98892.72;;;8.31;100.00
10464;BME280;5279;42.048;24.638;2022-10-17T03:37:03;98889.88;;;8.34;100.00
10464;BME280;5279;42.048;24.638;2022-10-17T03:39:30;98892.03;;;8.42;100.00
10464;BME280;5279;42.048;24.638;2022-10-17T03:41:58;98895.16;;;8.34;100.00
10464;BME280;5279;42.048;24.638;2022-10-17T03:44:25;98895.38;;;8.17;100.00
10464;BME280;5279;42.048;24.638;2022-10-17T03:47:01;98897.63;;;8.23;100.00
10464;BME280;5279;42.048;24.638;2022-10-17T03:49:28;98893.28;;;8.22;100.00
10464;BME280;5279;42.048;24.638;2022-10-17T03:51:58;98898.78;;;8.05;100.00
10464;BME280;5279;42.048;24.638;2022-10-17T03:54:25;98894.28;;;7.93;100.00
10464;BME280;5279;42.048;24.638;2022-10-17T03:56:52;98890.50;;;7.97;100.00
10464;BME280;5279;42.048;24.638;2022-10-17T03:59:21;98901.06;;;7.97;100.00
10464;BME280;5279;42.048;24.638;2022-10-17T04:01:47;98896.94;;;7.93;100.00
10464;BME280;5279;42.048;24.638;2022-10-17T04:04:14;98894.69;;;7.87;100.00
10464;BME280;5279;42.048;24.638;2022-10-17T04:06:41;98892.41;;;7.81;100.00
10464;BME280;5279;42.048;24.638;2022-10-17T04:09:09;98893.50;;;7.91;100.00
10464;BME280;5279;42.048;24.638;2022-10-17T04:11:36;98892.97;;;7.86;100.00
10464;BME280;5279;42.048;24.638;2022-10-17T04:14:03;98897.13;;;7.76;100.00
10464;BME280;5279;42.048;24.638;2022-10-17T04:16:31;98903.91;;;7.80;100.00
10464;BME280;5279;42.048;24.638;2022-10-17T04:18:59;98897.88;;;7.78;100.00
10464;BME280;5279;42.048;24.638;2022-10-17T04:21:27;98903.16;;;7.78;100.00
10464;BME280;5279;42.048;24.638;2022-10-17T04:23:55;98894.59;;;7.74;100.00
10464;BME280;5279;42.048;24.638;2022-10-17T04:26:23;98900.72;;;7.75;100.00
10464;BME280;5279;42.048;24.638;2022-10-17T04:28:50;98900.25;;;7.68;100.00
10464;BME280;5279;42.048;24.638;2022-10-17T04:31:17;98909.56;;;7.74;100.00
10464;BME280;5279;42.048;24.638;2022-10-17T04:33:48;98910.88;;;7.66;100.00
10464;BME280;5279;42.048;24.638;2022-10-17T04:36:16;98928.50;;;7.66;100.00
10464;BME280;5279;42.048;24.638;2022-10-17T04:38:43;98928.03;;;7.74;100.00
10464;BME280;5279;42.048;24.638;2022-10-17T04:41:12;98920.13;;;7.74;100.00
10464;BME280;5279;42.048;24.638;2022-10-17T04:43:39;98928.97;;;7.72;100.00
10464;BME280;5279;42.048;24.638;2022-10-17T04:46:07;98930.47;;;7.77;100.00
10464;BME280;5279;42.048;24.638;2022-10-17T04:48:35;98927.00;;;7.62;100.00
10464;BME280;5279;42.048;24.638;2022-10-17T04:51:06;98909.66;;;7.58;100.00
10464;BME280;5279;42.048;24.638;2022-10-17T04:53:35;98931.59;;;7.72;100.00
10464;BME280;5279;42.048;24.638;2022-10-17T04:56:07;98932.19;;;7.78;100.00
10464;BME280;5279;42.048;24.638;2022-10-17T04:58:34;98933.09;;;7.91;100.00
10464;BME280;5279;42.048;24.638;2022-10-17T05:01:04;98945.06;;;8.10;100.00
10464;BME280;5279;42.048;24.638;2022-10-17T05:03:30;98961.38;;;8.17;100.00
10464;BME280;5279;42.048;24.638;2022-10-17T05:06:04;98949.88;;;8.32;100.00
10464;BME280;5279;42.048;24.638;2022-10-17T05:08:32;98948.69;;;8.50;100.00
10464;BME280;5279;42.048;24.638;2022-10-17T05:10:59;98954.66;;;8.66;100.00
10464;BME280;5279;42.048;24.638;2022-10-17T05:13:26;98965.69;;;8.73;100.00
10464;BME280;5279;42.048;24.638;2022-10-17T05:15:53;98955.16;;;8.86;100.00
10464;BME280;5279;42.048;24.638;2022-10-17T05:18:23;98967.53;;;9.12;100.00
10464;BME280;5279;42.048;24.638;2022-10-17T05:20:50;98961.00;;;9.30;98.84
10464;BME280;5279;42.048;24.638;2022-10-17T05:23:18;98970.22;;;9.50;100.00
10464;BME280;5279;42.048;24.638;2022-10-17T05:25:45;98971.81;;;9.77;94.50
10464;BME280;5279;42.048;24.638;2022-10-17T05:28:12;98963.75;;;9.79;90.84
10464;BME280;5279;42.048;24.638;2022-10-17T05:30:45;98969.19;;;9.90;90.45
10464;BME280;5279;42.048;24.638;2022-10-17T05:33:12;98967.28;;;10.17;89.69
10464;BME280;5279;42.048;24.638;2022-10-17T05:35:38;98966.88;;;10.47;87.80
10464;BME280;5279;42.048;24.638;2022-10-17T05:38:05;98976.50;;;10.84;87.96
10464;BME280;5279;42.048;24.638;2022-10-17T05:40:33;98986.06;;;11.22;82.81
10464;BME280;5279;42.048;24.638;2022-10-17T05:43:00;98990.06;;;11.62;77.92
10464;BME280;5279;42.048;24.638;2022-10-17T05:45:28;98994.50;;;11.96;76.68
10464;BME280;5279;42.048;24.638;2022-10-17T05:47:55;99001.03;;;12.37;72.84
10464;BME280;5279;42.048;24.638;2022-10-17T05:50:21;98999.06;;;12.72;69.38
10464;BME280;5279;42.048;24.638;2022-10-17T05:52:52;99006.47;;;13.11;67.15
10464;BME280;5279;42.048;24.638;2022-10-17T05:55:19;99006.78;;;13.29;67.17
10464;BME280;5279;42.048;24.638;2022-10-17T05:57:47;99008.50;;;13.51;65.81
10464;BME280;5279;42.048;24.638;2022-10-17T06:00:15;99008.56;;;13.60;67.11
10464;BME280;5279;42.048;24.638;2022-10-17T06:02:43;99008.38;;;13.73;60.59
10464;BME280;5279;42.048;24.638;2022-10-17T06:05:11;99013.25;;;13.89;62.10
10464;BME280;5279;42.048;24.638;2022-10-17T06:07:39;99016.16;;;14.06;61.73
10464;BME280;5279;42.048;24.638;2022-10-17T06:10:06;99015.78;;;13.90;59.05
10464;BME280;5279;42.048;24.638;2022-10-17T06:12:33;99014.72;;;14.02;59.09
10464;BME280;5279;42.048;24.638;2022-10-17T06:15:02;99013.13;;;14.20;59.58
10464;BME280;5279;42.048;24.638;2022-10-17T06:17:32;99015.50;;;14.44;63.42
10464;BME280;5279;42.048;24.638;2022-10-17T06:19:59;99026.69;;;14.59;64.13
10464;BME280;5279;42.048;24.638;2022-10-17T06:22:26;99016.09;;;14.48;64.70
10464;BME280;5279;42.048;24.638;2022-10-17T06:24:53;99018.38;;;14.52;64.47
10464;BME280;5279;42.048;24.638;2022-10-17T06:27:20;99018.69;;;14.59;65.51
10464;BME280;5279;42.048;24.638;2022-10-17T06:29:47;99021.94;;;14.72;63.07
10464;BME280;5279;42.048;24.638;2022-10-17T06:32:17;99028.84;;;14.84;64.31
10464;BME280;5279;42.048;24.638;2022-10-17T06:34:47;99028.03;;;14.93;62.27
10464;BME280;5279;42.048;24.638;2022-10-17T06:37:14;99037.59;;;14.86;60.12
10464;BME280;5279;42.048;24.638;2022-10-17T06:39:40;99033.19;;;14.75;62.96
10464;BME280;5279;42.048;24.638;2022-10-17T06:42:08;99034.78;;;14.97;61.33
10464;BME280;5279;42.048;24.638;2022-10-17T06:44:35;99039.31;;;15.06;60.14
10464;BME280;5279;42.048;24.638;2022-10-17T06:47:01;99039.88;;;15.10;60.36
10464;BME280;5279;42.048;24.638;2022-10-17T06:49:30;99037.34;;;15.18;60.04
10464;BME280;5279;42.048;24.638;2022-10-17T06:51:58;99039.34;;;15.45;59.66
10464;BME280;5279;42.048;24.638;2022-10-17T06:54:26;99034.59;;;15.58;58.68
10464;BME280;5279;42.048;24.638;2022-10-17T06:56:53;99037.00;;;15.61;58.20
10464;BME280;5279;42.048;24.638;2022-10-17T06:59:20;99039.09;;;15.48;57.55
10464;BME280;5279;42.048;24.638;2022-10-17T07:01:47;99035.97;;;15.81;57.04
10464;BME280;5279;42.048;24.638;2022-10-17T07:04:14;99052.31;;;15.78;56.65
10464;BME280;5279;42.048;24.638;2022-10-17T07:06:43;99040.44;;;16.09;55.61
10464;BME280;5279;42.048;24.638;2022-10-17T07:09:10;99048.94;;;15.95;54.55
10464;BME280;5279;42.048;24.638;2022-10-17T07:11:37;99053.34;;;16.23;54.55
10464;BME280;5279;42.048;24.638;2022-10-17T07:14:38;99054.47;;;16.30;54.21
10464;BME280;5279;42.048;24.638;2022-10-17T07:17:05;99060.09;;;16.27;54.22
10464;BME280;5279;42.048;24.638;2022-10-17T07:19:34;99060.91;;;16.47;53.86
10464;BME280;5279;42.048;24.638;2022-10-17T07:22:02;99056.63;;;16.64;53.69
10464;BME280;5279;42.048;24.638;2022-10-17T07:24:41;99057.91;;;16.60;53.74
10464;BME280;5279;42.048;24.638;2022-10-17T07:27:08;99061.13;;;16.63;53.41
10464;BME280;5279;42.048;24.638;2022-10-17T07:29:44;99068.38;;;16.90;53.29
10464;BME280;5279;42.048;24.638;2022-10-17T07:32:11;99074.63;;;17.08;52.00
10464;BME280;5279;42.048;24.638;2022-10-17T07:34:38;99073.72;;;17.17;51.14
10464;BME280;5279;42.048;24.638;2022-10-17T07:37:07;99067.22;;;17.37;50.64
10464;BME280;5279;42.048;24.638;2022-10-17T07:39:35;99075.88;;;17.49;50.90
10464;BME280;5279;42.048;24.638;2022-10-17T07:42:01;99072.75;;;17.54;50.51
10464;BME280;5279;42.048;24.638;2022-10-17T07:44:29;99071.31;;;17.77;49.69
10464;BME280;5279;42.048;24.638;2022-10-17T07:46:56;99064.41;;;17.92;50.47
10464;BME280;5279;42.048;24.638;2022-10-17T07:49:23;99061.66;;;18.01;49.68
10464;BME280;5279;42.048;24.638;2022-10-17T07:51:50;99060.72;;;18.36;47.99
10464;BME280;5279;42.048;24.638;2022-10-17T07:54:18;99065.72;;;18.31;47.80
10464;BME280;5279;42.048;24.638;2022-10-17T07:56:45;99068.63;;;18.38;46.91
10464;BME280;5279;42.048;24.638;2022-10-17T07:59:15;99066.66;;;18.74;46.76
10464;BME280;5279;42.048;24.638;2022-10-17T08:01:44;99059.00;;;18.87;46.83
10464;BME280;5279;42.048;24.638;2022-10-17T08:04:10;99055.38;;;19.04;46.25
10464;BME280;5279;42.048;24.638;2022-10-17T08:06:37;99051.41;;;19.24;46.60
10464;BME280;5279;42.048;24.638;2022-10-17T08:09:04;99061.34;;;19.32;43.79
10464;BME280;5279;42.048;24.638;2022-10-17T08:11:32;99062.94;;;19.50;44.69
10464;BME280;5279;42.048;24.638;2022-10-17T08:14:00;99050.75;;;19.30;43.53
10464;BME280;5279;42.048;24.638;2022-10-17T08:16:38;99061.09;;;19.51;44.15
10464;BME280;5279;42.048;24.638;2022-10-17T08:19:05;99059.94;;;19.78;43.77
10464;BME280;5279;42.048;24.638;2022-10-17T08:21:33;99058.63;;;20.06;42.88
10464;BME280;5279;42.048;24.638;2022-10-17T08:24:00;99069.34;;;19.74;43.53
10464;BME280;5279;42.048;24.638;2022-10-17T08:26:32;99061.97;;;20.08;42.72
10464;BME280;5279;42.048;24.638;2022-10-17T08:28:59;99071.88;;;20.40;41.66
10464;BME280;5279;42.048;24.638;2022-10-17T08:31:26;99069.38;;;20.38;42.43
10464;BME280;5279;42.048;24.638;2022-10-17T08:33:59;99068.16;;;20.57;41.49
10464;BME280;5279;42.048;24.638;2022-10-17T08:36:26;99063.19;;;20.85;40.93
10464;BME280;5279;42.048;24.638;2022-10-17T08:38:54;99061.38;;;21.16;40.44
10464;BME280;5279;42.048;24.638;2022-10-17T08:41:35;99060.78;;;21.37;39.85
10464;BME280;5279;42.048;24.638;2022-10-17T08:44:14;99064.41;;;21.74;39.42
10464;BME280;5279;42.048;24.638;2022-10-17T08:46:47;99058.44;;;22.10;38.35
10464;BME280;5279;42.048;24.638;2022-10-17T08:49:22;99060.94;;;22.63;37.81
10464;BME280;5279;42.048;24.638;2022-10-17T08:52:03;99061.84;;;23.29;35.53
10464;BME280;5279;42.048;24.638;2022-10-17T08:54:39;99055.81;;;24.54;33.74
10464;BME280;5279;42.048;24.638;2022-10-17T08:57:11;99058.53;;;26.03;32.09
10464;BME280;5279;42.048;24.638;2022-10-17T08:59:40;99048.91;;;26.92;29.71
10464;BME280;5279;42.048;24.638;2022-10-17T09:02:29;99060.88;;;27.80;27.79
10464;BME280;5279;42.048;24.638;2022-10-17T09:05:23;99057.88;;;28.44;26.75
10464;BME280;5279;42.048;24.638;2022-10-17T09:08:01;99053.69;;;29.27;25.94
10464;BME280;5279;42.048;24.638;2022-10-17T09:10:38;99048.88;;;30.01;25.29
10464;BME280;5279;42.048;24.638;2022-10-17T09:13:21;99037.63;;;29.97;24.40
10464;BME280;5279;42.048;24.638;2022-10-17T09:16:04;99038.41;;;30.39;23.87
10464;BME280;5279;42.048;24.638;2022-10-17T09:18:37;99041.00;;;30.92;23.50
10464;BME280;5279;42.048;24.638;2022-10-17T09:21:18;99033.13;;;30.14;23.80
10464;BME280;5279;42.048;24.638;2022-10-17T09:23:49;99032.94;;;30.51;25.70
10464;BME280;5279;42.048;24.638;2022-10-17T09:26:16;99033.16;;;30.84;23.76
10464;BME280;5279;42.048;24.638;2022-10-17T09:28:50;99041.19;;;31.25;23.10
10464;BME280;5279;42.048;24.638;2022-10-17T09:31:24;99039.34;;;31.54;22.17
10464;BME280;5279;42.048;24.638;2022-10-17T09:33:54;99039.25;;;31.49;22.06
10464;BME280;5279;42.048;24.638;2022-10-17T09:36:23;99040.19;;;31.55;22.36
10464;BME280;5279;42.048;24.638;2022-10-17T09:38:55;99035.66;;;32.38;21.24
10464;BME280;5279;42.048;24.638;2022-10-17T09:41:26;99040.13;;;32.78;20.30
10464;BME280;5279;42.048;24.638;2022-10-17T09:43:58;99031.03;;;32.56;20.50
10464;BME280;5279;42.048;24.638;2022-10-17T09:46:36;99026.28;;;32.68;20.85
10464;BME280;5279;42.048;24.638;2022-10-17T09:49:11;99026.50;;;33.70;18.92
10464;BME280;5279;42.048;24.638;2022-10-17T09:51:40;99014.09;;;33.94;19.20
10464;BME280;5279;42.048;24.638;2022-10-17T09:54:14;99015.78;;;34.00;19.10
10464;BME280;5279;42.048;24.638;2022-10-17T09:56:59;99010.78;;;33.92;18.92
10464;BME280;5279;42.048;24.638;2022-10-17T09:59:32;99011.06;;;34.22;17.47
10464;BME280;5279;42.048;24.638;2022-10-17T10:02:11;99011.19;;;34.37;17.72
10464;BME280;5279;42.048;24.638;2022-10-17T10:04:51;99008.06;;;34.61;15.90
10464;BME280;5279;42.048;24.638;2022-10-17T10:07:18;99002.72;;;34.12;15.95
10464;BME280;5279;42.048;24.638;2022-10-17T10:09:47;98993.09;;;34.46;17.09
10464;BME280;5279;42.048;24.638;2022-10-17T10:12:17;98987.94;;;35.07;14.82
10464;BME280;5279;42.048;24.638;2022-10-17T10:14:46;98992.13;;;35.15;15.17
10464;BME280;5279;42.048;24.638;2022-10-17T10:17:33;98998.66;;;35.71;13.68
10464;BME280;5279;42.048;24.638;2022-10-17T10:20:03;98994.81;;;35.77;13.52
10464;BME280;5279;42.048;24.638;2022-10-17T10:23:04;98988.72;;;35.70;13.24
10464;BME280;5279;42.048;24.638;2022-10-17T10:25:31;98982.13;;;35.91;12.57
10464;BME280;5279;42.048;24.638;2022-10-17T10:27:59;98986.03;;;36.20;12.66
10464;BME280;5279;42.048;24.638;2022-10-17T10:30:29;98982.97;;;36.22;12.59
10464;BME280;5279;42.048;24.638;2022-10-17T10:33:09;98981.88;;;36.38;12.93
10464;BME280;5279;42.048;24.638;2022-10-17T10:35:37;98978.66;;;35.28;12.65
10464;BME280;5279;42.048;24.638;2022-10-17T10:38:09;98973.28;;;35.74;13.34
10464;BME280;5279;42.048;24.638;2022-10-17T10:40:44;98971.94;;;36.22;12.41
10464;BME280;5279;42.048;24.638;2022-10-17T10:43:21;98971.94;;;36.42;12.49
10464;BME280;5279;42.048;24.638;2022-10-17T10:45:51;98977.72;;;36.15;13.03
10464;BME280;5279;42.048;24.638;2022-10-17T10:48:37;98977.13;;;36.48;12.55
10464;BME280;5279;42.048;24.638;2022-10-17T10:51:18;98976.03;;;35.74;11.99
10464;BME280;5279;42.048;24.638;2022-10-17T10:53:48;98982.69;;;36.43;11.95
10464;BME280;5279;42.048;24.638;2022-10-17T10:56:20;98965.38;;;37.12;11.79
10464;BME280;5279;42.048;24.638;2022-10-17T10:58:53;98956.50;;;37.20;11.68
10464;BME280;5279;42.048;24.638;2022-10-17T11:01:27;98961.59;;;37.57;11.22
10464;BME280;5279;42.048;24.638;2022-10-17T11:04:03;98972.63;;;36.93;11.27
10464;BME280;5279;42.048;24.638;2022-10-17T11:06:42;98959.78;;;35.97;11.74
10464;BME280;5279;42.048;24.638;2022-10-17T11:09:18;98948.81;;;37.07;11.10
10464;BME280;5279;42.048;24.638;2022-10-17T11:11:58;98952.50;;;37.51;10.99
10464;BME280;5279;42.048;24.638;2022-10-17T11:14:37;98951.00;;;37.64;10.54
10464;BME280;5279;42.048;24.638;2022-10-17T11:17:14;98948.25;;;39.08;9.89
10464;BME280;5279;42.048;24.638;2022-10-17T11:19:49;98953.03;;;39.45;9.92
10464;BME280;5279;42.048;24.638;2022-10-17T11:22:22;98936.91;;;39.28;9.29
10464;BME280;5279;42.048;24.638;2022-10-17T11:24:57;98942.69;;;39.31;9.64
10464;BME280;5279;42.048;24.638;2022-10-17T11:27:27;98944.66;;;38.31;10.20
10464;BME280;5279;42.048;24.638;2022-10-17T11:29:55;98934.50;;;38.98;9.88
10464;BME280;5279;42.048;24.638;2022-10-17T11:32:28;98940.94;;;37.34;10.97
10464;BME280;5279;42.048;24.638;2022-10-17T11:34:59;98932.41;;;38.37;10.63
10464;BME280;5279;42.048;24.638;2022-10-17T11:37:31;98929.31;;;38.15;10.75
10464;BME280;5279;42.048;24.638;2022-10-17T11:40:02;98925.63;;;39.19;10.59
10464;BME280;5279;42.048;24.638;2022-10-17T11:42:34;98923.41;;;39.77;9.64
10464;BME280;5279;42.048;24.638;2022-10-17T11:45:09;98921.56;;;39.73;10.04
10464;BME280;5279;42.048;24.638;2022-10-17T11:47:44;98921.56;;;39.73;9.86
10464;BME280;5279;42.048;24.638;2022-10-17T11:50:19;98922.75;;;40.18;9.07
10464;BME280;5279;42.048;24.638;2022-10-17T11:52:50;98916.41;;;40.31;10.26
10464;BME280;5279;42.048;24.638;2022-10-17T11:55:21;98885.94;;;40.26;9.79
10464;BME280;5279;42.048;24.638;2022-10-17T11:57:56;98912.97;;;40.66;9.53
10464;BME280;5279;42.048;24.638;2022-10-17T12:00:33;98907.97;;;39.71;10.47
10464;BME280;5279;42.048;24.638;2022-10-17T12:03:21;98904.69;;;40.34;10.24
10464;BME280;5279;42.048;24.638;2022-10-17T12:05:52;98907.81;;;40.73;9.75
10464;BME280;5279;42.048;24.638;2022-10-17T12:08:28;98895.03;;;40.72;10.05
10464;BME280;5279;42.048;24.638;2022-10-17T12:10:59;98893.41;;;41.70;9.95
10464;BME280;5279;42.048;24.638;2022-10-17T12:13:49;98901.81;;;42.23;9.11
10464;BME280;5279;42.048;24.638;2022-10-17T12:16:44;98901.16;;;42.26;9.19
10464;BME280;5279;42.048;24.638;2022-10-17T12:19:20;98908.44;;;39.92;9.98
10464;BME280;5279;42.048;24.638;2022-10-17T12:21:56;98887.34;;;40.10;10.16
10464;BME280;5279;42.048;24.638;2022-10-17T12:24:38;98890.22;;;41.27;9.83
10464;BME280;5279;42.048;24.638;2022-10-17T12:27:21;98879.38;;;41.04;9.27
10464;BME280;5279;42.048;24.638;2022-10-17T12:29:49;98891.16;;;41.23;9.45
10464;BME280;5279;42.048;24.638;2022-10-17T12:32:24;98889.34;;;41.98;9.49
10464;BME280;5279;42.048;24.638;2022-10-17T12:34:55;98883.91;;;41.49;9.44
10464;BME280;5279;42.048;24.638;2022-10-17T12:40:46;98895.66;;;41.32;9.72
10464;BME280;5279;42.048;24.638;2022-10-17T12:43:46;98886.13;;;41.25;9.42
10464;BME280;5279;42.048;24.638;2022-10-17T12:49:37;98892.66;;;41.78;9.35
10464;BME280;5279;42.048;24.638;2022-10-17T12:52:24;98883.66;;;41.81;9.87
10464;BME280;5279;42.048;24.638;2022-10-17T12:55:06;98881.06;;;41.27;9.67
10464;BME280;5279;42.048;24.638;2022-10-17T13:00:30;98888.56;;;40.63;10.77
10464;BME280;5279;42.048;24.638;2022-10-17T13:03:03;98885.97;;;40.94;10.24
10464;BME280;5279;42.048;24.638;2022-10-17T13:05:34;98885.16;;;40.66;10.36
10464;BME280;5279;42.048;24.638;2022-10-17T13:08:05;98887.63;;;40.81;10.02
10464;BME280;5279;42.048;24.638;2022-10-17T13:10:35;98889.81;;;41.34;10.03
10464;BME280;5279;42.048;24.638;2022-10-17T13:13:06;98897.63;;;40.55;10.54
10464;BME280;5279;42.048;24.638;2022-10-17T13:15:36;98889.66;;;40.49;10.91
10464;BME280;5279;42.048;24.638;2022-10-17T13:18:03;98884.66;;;40.64;10.85
10464;BME280;5279;42.048;24.638;2022-10-17T13:20:31;98879.38;;;40.49;11.11
10464;BME280;5279;42.048;24.638;2022-10-17T13:22:58;98888.22;;;40.78;11.00
10464;BME280;5279;42.048;24.638;2022-10-17T13:25:27;98890.88;;;40.43;11.23
10464;BME280;5279;42.048;24.638;2022-10-17T13:28:11;98884.19;;;39.47;11.71
10464;BME280;5279;42.048;24.638;2022-10-17T13:30:44;98886.47;;;38.84;12.24
10464;BME280;5279;42.048;24.638;2022-10-17T13:33:31;98890.78;;;38.47;11.80
10464;BME280;5279;42.048;24.638;2022-10-17T13:36:00;98874.28;;;36.87;13.40
10464;BME280;5279;42.048;24.638;2022-10-17T13:38:31;98882.66;;;36.51;13.30
10464;BME280;5279;42.048;24.638;2022-10-17T13:41:01;98888.28;;;35.91;13.99